Time;durP1;ratioP1;P1;durP2;ratioP2;P2;SDS_P1;SDS_P2;PMS_P1;PMS_P2;Temp;Humidity;BMP_temperature;BMP_pressure;BME280_temperature;BME280_humidity;BME280_pressure;Samples;Min_cycle;Max_cycle;Signal;HPM_P1;HPM_P2
2023/01/17 00:01:29;;;;;;;6.38;2.20;;;5.50;99.90;;;;;;5075929;28;20031;-73
2023/01/17 00:12:07;;;;;;;5.23;2.50;;;5.60;99.90;;;;;;5076609;28;20039;-73
2023/01/17 00:14:32;;;;;;;5.65;2.00;;;5.60;99.90;;;;;;5075358;28;20385;-73
2023/01/17 00:17:00;;;;;;;5.30;1.95;;;5.70;99.90;;;;;;5074695;28;20055;-72
2023/01/17 01:33:59;;;;;;;5.82;2.35;;;5.50;99.90;;;;;;5073579;28;20035;-73
2023/01/17 01:36:25;;;;;;;6.15;2.53;;;5.50;99.90;;;;;;5072681;28;20029;-72
2023/01/17 01:38:50;;;;;;;4.47;2.08;;;5.50;99.90;;;;;;5073436;28;20401;-75
2023/01/17 01:41:16;;;;;;;5.47;2.30;;;5.50;99.90;;;;;;5073079;28;20032;-75
2023/01/17 01:43:49;;;;;;;3.72;2.33;;;5.40;99.90;;;;;;5073400;28;20089;-73
2023/01/17 01:46:20;;;;;;;5.63;2.60;;;5.30;99.90;;;;;;5073089;28;20437;-73
2023/01/17 01:48:51;;;;;;;5.45;2.47;;;5.20;99.90;;;;;;5073257;28;20031;-72
2023/01/17 01:51:40;;;;;;;10.80;2.97;;;5.30;99.90;;;;;;5072538;28;20025;-72
2023/01/17 01:54:19;;;;;;;5.80;2.60;;;5.20;99.90;;;;;;5072876;28;20587;-74
2023/01/17 01:56:47;;;;;;;6.95;2.50;;;5.30;99.90;;;;;;5072385;28;20413;-73
2023/01/17 01:59:18;;;;;;;9.05;2.95;;;5.20;99.90;;;;;;5072907;28;20070;-72
2023/01/17 02:01:43;;;;;;;6.07;2.80;;;5.20;99.90;;;;;;5073384;28;20025;-74
2023/01/17 02:04:09;;;;;;;6.53;2.67;;;5.20;99.90;;;;;;5073785;28;20482;-74
2023/01/17 02:06:40;;;;;;;6.97;2.83;;;5.30;99.90;;;;;;5072485;28;20074;-73
2023/01/17 02:09:08;;;;;;;6.25;3.08;;;5.30;99.90;;;;;;5072795;28;20054;-72
2023/01/17 02:11:36;;;;;;;6.45;2.88;;;5.40;99.90;;;;;;5074022;28;20021;-73
2023/01/17 02:14:01;;;;;;;8.13;2.97;;;5.40;99.90;;;;;;5072531;28;20044;-71
2023/01/17 02:16:38;;;;;;;6.30;3.28;;;5.50;99.90;;;;;;5070307;28;20430;-72
2023/01/17 02:19:09;;;;;;;5.40;2.88;;;5.40;99.90;;;;;;5072626;28;20020;-73
2023/01/17 02:22:06;;;;;;;7.80;3.45;;;5.30;99.90;;;;;;5054480;28;20043;-72
2023/01/17 02:24:50;;;;;;;4.80;3.20;;;5.30;99.90;;;;;;5072433;28;20032;-73
2023/01/17 02:27:29;;;;;;;4.63;3.20;;;5.30;99.90;;;;;;5071708;28;20379;-73
2023/01/17 02:30:31;;;;;;;6.30;3.65;;;5.30;99.90;;;;;;5072685;28;20389;-73
2023/01/17 02:33:05;;;;;;;6.50;3.58;;;5.40;99.90;;;;;;5072617;28;20024;-73
2023/01/17 02:35:44;;;;;;;8.02;3.88;;;5.40;99.90;;;;;;5071746;28;20396;-73
2023/01/17 02:38:58;;;;;;;5.40;3.85;;;5.40;99.90;;;;;;5072406;28;20450;-73
2023/01/17 02:41:36;;;;;;;5.72;4.00;;;5.30;99.90;;;;;;5072414;28;20107;-73
2023/01/17 02:44:02;;;;;;;7.18;4.32;;;5.20;99.90;;;;;;5072805;28;20028;-73
2023/01/17 02:46:28;;;;;;;7.93;4.82;;;5.20;99.90;;;;;;5071720;28;20056;-73
2023/01/17 02:48:56;;;;;;;8.10;5.00;;;5.10;99.90;;;;;;5072340;28;20055;-73
2023/01/17 02:51:52;;;;;;;10.20;5.07;;;5.10;99.90;;;;;;5072925;28;20498;-72
2023/01/17 02:54:58;;;;;;;8.30;5.80;;;5.20;99.90;;;;;;5072867;28;20049;-72
2023/01/17 02:57:26;;;;;;;7.95;5.47;;;5.20;99.90;;;;;;5073957;28;20017;-72
2023/01/17 03:00:01;;;;;;;10.75;5.15;;;5.20;99.90;;;;;;5056144;28;20370;-75
2023/01/17 03:02:37;;;;;;;8.10;5.57;;;5.30;99.90;;;;;;5072277;28;20036;-73
2023/01/17 03:05:09;;;;;;;11.15;6.50;;;5.30;99.90;;;;;;5072081;28;20032;-72
2023/01/17 03:07:38;;;;;;;8.77;6.07;;;5.30;99.90;;;;;;5071574;28;20063;-73
2023/01/17 03:10:05;;;;;;;8.90;6.70;;;5.30;99.90;;;;;;5071987;28;20016;-73
2023/01/17 03:12:33;;;;;;;11.82;7.63;;;5.30;99.90;;;;;;5071648;28;20102;-73
2023/01/17 03:14:59;;;;;;;11.10;6.78;;;5.20;99.90;;;;;;5071661;28;20501;-74
2023/01/17 03:17:30;;;;;;;10.60;7.53;;;5.20;99.90;;;;;;5071496;28;20033;-74
2023/01/17 03:19:56;;;;;;;10.23;7.47;;;5.20;99.90;;;;;;5072042;28;20031;-73
2023/01/17 03:22:21;;;;;;;11.05;8.38;;;5.20;99.90;;;;;;5071754;28;20025;-75
2023/01/17 03:24:47;;;;;;;11.07;7.95;;;5.10;99.90;;;;;;5072150;28;20425;-74
2023/01/17 03:27:12;;;;;;;10.10;7.97;;;5.20;99.90;;;;;;5071216;28;20028;-74
2023/01/17 03:29:38;;;;;;;12.38;9.25;;;5.20;99.90;;;;;;5072168;28;20025;-73
2023/01/17 03:32:03;;;;;;;13.20;10.05;;;5.20;99.90;;;;;;5073695;28;20039;-73
2023/01/17 03:34:29;;;;;;;13.93;10.18;;;5.10;99.90;;;;;;5072623;28;20028;-73
2023/01/17 03:36:54;;;;;;;12.82;9.88;;;5.20;99.90;;;;;;5073052;28;20111;-74
2023/01/17 03:39:20;;;;;;;13.48;10.25;;;5.20;99.90;;;;;;5071727;28;20029;-73
2023/01/17 03:41:45;;;;;;;16.05;11.60;;;5.20;99.90;;;;;;5071705;28;20340;-73
2023/01/17 03:44:11;;;;;;;17.50;11.10;;;5.20;99.90;;;;;;5071697;28;20103;-74
2023/01/17 03:46:36;;;;;;;15.90;11.63;;;5.30;99.90;;;;;;5070772;28;20024;-73
2023/01/17 03:49:02;;;;;;;19.38;12.35;;;5.30;99.90;;;;;;5071379;28;20388;-75
2023/01/17 03:51:27;;;;;;;17.48;12.85;;;5.40;99.90;;;;;;5071320;28;20032;-73
2023/01/17 03:53:53;;;;;;;18.52;12.82;;;5.30;99.90;;;;;;5071516;28;20028;-73
2023/01/17 03:56:18;;;;;;;17.80;12.63;;;5.30;99.90;;;;;;5071196;28;20047;-73
2023/01/17 03:58:44;;;;;;;19.40;14.40;;;5.30;99.90;;;;;;5071637;28;20024;-74
2023/01/17 04:01:10;;;;;;;18.20;12.48;;;5.20;99.90;;;;;;5071385;28;20017;-74
2023/01/17 04:03:35;;;;;;;16.80;13.05;;;5.30;99.90;;;;;;5071509;28;20029;-75
2023/01/17 04:06:01;;;;;;;19.27;12.35;;;5.20;99.90;;;;;;5071608;28;20041;-73
2023/01/17 04:08:26;;;;;;;16.77;13.07;;;5.20;99.90;;;;;;5071460;28;20029;-73
2023/01/17 04:10:52;;;;;;;16.25;12.63;;;5.30;99.90;;;;;;5071095;28;20103;-72
2023/01/17 04:13:17;;;;;;;17.50;12.77;;;5.30;99.90;;;;;;5071839;28;20115;-75
2023/01/17 04:15:44;;;;;;;16.38;12.15;;;5.30;99.90;;;;;;5074688;28;20497;-74
2023/01/17 04:18:12;;;;;;;18.98;12.38;;;5.30;99.90;;;;;;5072681;28;20150;-72
2023/01/17 04:20:39;;;;;;;17.45;12.82;;;5.30;99.90;;;;;;5075738;28;20017;-73
2023/01/17 04:23:05;;;;;;;12.23;9.40;;;5.40;99.90;;;;;;5075104;28;20402;-71
2023/01/17 04:25:31;;;;;;;13.32;9.40;;;5.40;99.90;;;;;;5074407;28;20086;-73
2023/01/17 04:27:58;;;;;;;10.93;8.32;;;5.40;99.90;;;;;;5074765;28;20444;-73
2023/01/17 04:30:25;;;;;;;8.93;6.95;;;5.30;99.90;;;;;;5074694;28;20093;-73
2023/01/17 04:32:50;;;;;;;10.27;7.03;;;5.30;99.90;;;;;;5074567;28;20025;-74
2023/01/17 04:35:16;;;;;;;8.52;6.20;;;5.20;99.90;;;;;;5074257;28;20028;-75
2023/01/17 04:37:42;;;;;;;7.85;5.57;;;5.20;99.90;;;;;;5074101;28;20029;-73
2023/01/17 04:40:09;;;;;;;5.30;3.80;;;5.10;99.90;;;;;;5074408;28;20043;-73
2023/01/17 04:42:35;;;;;;;5.20;3.60;;;5.00;99.90;;;;;;5074287;28;20441;-73
2023/01/17 04:45:00;;;;;;;4.55;3.40;;;4.90;99.90;;;;;;5074192;28;20110;-73
2023/01/17 04:47:26;;;;;;;4.07;2.90;;;4.90;99.90;;;;;;5074307;28;20067;-73
2023/01/17 04:49:52;;;;;;;3.13;2.65;;;4.80;99.90;;;;;;5075417;28;20148;-74
2023/01/17 04:52:19;;;;;;;2.20;2.00;;;4.80;99.90;;;;;;5074606;28;20033;-73
2023/01/17 04:54:48;;;;;;;3.13;2.17;;;4.80;99.90;;;;;;5074295;28;20031;-74
2023/01/17 04:57:15;;;;;;;2.70;2.15;;;4.70;99.90;;;;;;5073520;28;20024;-73
2023/01/17 04:59:40;;;;;;;3.60;2.50;;;4.60;99.90;;;;;;5074064;28;20021;-72
2023/01/17 05:02:06;;;;;;;3.45;2.60;;;4.60;99.90;;;;;;5073810;28;20077;-74
2023/01/17 05:04:32;;;;;;;4.18;3.10;;;4.60;99.90;;;;;;5074083;28;20039;-73
2023/01/17 05:06:57;;;;;;;3.60;2.80;;;4.60;99.90;;;;;;5073229;28;20099;-73
2023/01/17 05:09:23;;;;;;;5.00;3.65;;;4.50;99.90;;;;;;5075032;28;20507;-74
2023/01/17 05:11:48;;;;;;;4.38;3.67;;;4.50;99.90;;;;;;5073926;28;20399;-73
2023/01/17 05:14:13;;;;;;;6.65;4.70;;;4.60;99.90;;;;;;5074586;28;20108;-72
2023/01/17 05:16:39;;;;;;;7.43;4.90;;;4.60;99.90;;;;;;5077326;28;20024;-73
2023/01/17 05:19:04;;;;;;;8.07;5.50;;;4.60;99.90;;;;;;5078564;28;20354;-77
2023/01/17 05:21:31;;;;;;;8.35;6.25;;;4.60;99.90;;;;;;5079115;28;20028;-77
2023/01/17 05:23:57;;;;;;;9.88;6.32;;;4.70;99.90;;;;;;5073940;28;20028;-77
2023/01/17 05:26:22;;;;;;;9.02;6.28;;;4.70;99.90;;;;;;5072750;28;20021;-73
2023/01/17 05:28:48;;;;;;;10.95;7.70;;;4.70;99.90;;;;;;5073898;28;20036;-76
2023/01/17 05:31:14;;;;;;;12.27;8.20;;;4.70;99.90;;;;;;5073661;28;20033;-73
2023/01/17 05:33:39;;;;;;;11.88;7.43;;;4.70;99.90;;;;;;5073505;28;20385;-73
2023/01/17 05:36:05;;;;;;;13.20;8.25;;;4.80;99.90;;;;;;5072825;28;20028;-74
2023/01/17 05:38:31;;;;;;;14.10;9.68;;;4.80;99.90;;;;;;5073352;28;20020;-72
2023/01/17 05:41:00;;;;;;;11.50;7.72;;;4.90;99.90;;;;;;5073058;28;20016;-72
2023/01/17 05:43:27;;;;;;;10.30;6.90;;;4.90;99.90;;;;;;5073291;28;20079;-74
2023/01/17 05:45:52;;;;;;;8.90;6.40;;;4.90;99.90;;;;;;5054464;28;20486;-72
2023/01/17 05:48:18;;;;;;;9.63;6.85;;;4.90;99.90;;;;;;5073139;28;20090;-73
2023/01/17 05:50:43;;;;;;;7.15;4.82;;;4.90;99.90;;;;;;5072907;28;20024;-71
2023/01/17 05:53:12;;;;;;;5.35;3.55;;;4.90;99.90;;;;;;5073265;28;20498;-71
2023/01/17 05:55:38;;;;;;;7.43;2.80;;;4.90;99.90;;;;;;5072459;28;20032;-75
2023/01/17 05:58:04;;;;;;;4.35;2.00;;;4.80;99.90;;;;;;5072977;28;20037;-72
2023/01/17 06:00:31;;;;;;;2.60;1.48;;;4.80;99.90;;;;;;5072850;28;20070;-71
2023/01/17 06:02:58;;;;;;;2.70;1.13;;;4.80;99.90;;;;;;5072699;28;20028;-71
2023/01/17 06:05:25;;;;;;;8.10;2.85;;;4.80;99.90;;;;;;5072064;28;20032;-73
2023/01/17 06:07:51;;;;;;;2.72;1.40;;;4.70;99.90;;;;;;5074773;28;20497;-76
2023/01/17 06:10:18;;;;;;;6.88;1.10;;;4.70;99.90;;;;;;5077467;28;20113;-76
2023/01/17 06:12:45;;;;;;;7.75;1.00;;;4.60;99.90;;;;;;5073621;28;20028;-76
2023/01/17 06:15:12;;;;;;;6.82;1.65;;;4.60;99.90;;;;;;5072580;28;20034;-73
2023/01/17 06:17:38;;;;;;;3.72;0.88;;;4.60;99.90;;;;;;5072366;28;20129;-73
2023/01/17 06:20:05;;;;;;;7.68;0.90;;;4.60;99.90;;;;;;5070836;28;20497;-75
2023/01/17 06:22:31;;;;;;;7.90;1.00;;;4.60;99.90;;;;;;5072144;28;20024;-75
2023/01/17 06:24:57;;;;;;;7.05;1.00;;;4.70;99.90;;;;;;5072069;28;20037;-77
2023/01/17 06:27:22;;;;;;;8.07;1.05;;;4.70;99.90;;;;;;5071499;28;20288;-76
2023/01/17 06:29:48;;;;;;;8.70;1.80;;;4.60;99.90;;;;;;5072333;28;20035;-78
2023/01/17 06:32:13;;;;;;;7.47;1.30;;;4.70;99.90;;;;;;5072930;28;20032;-75
2023/01/17 06:34:40;;;;;;;13.27;2.03;;;4.60;99.90;;;;;;5071529;28;20029;-75
2023/01/17 06:37:06;;;;;;;14.70;1.27;;;4.60;99.90;;;;;;5071414;28;20017;-75
2023/01/17 06:39:31;;;;;;;6.15;1.00;;;4.60;99.90;;;;;;5064829;28;20031;-76
2023/01/17 06:41:58;;;;;;;13.55;1.55;;;4.60;99.90;;;;;;5080396;28;20028;-76
2023/01/17 06:44:25;;;;;;;10.63;1.48;;;4.50;99.90;;;;;;5085783;28;20048;-76
2023/01/17 06:46:51;;;;;;;14.40;1.60;;;4.50;99.90;;;;;;5085159;28;20021;-77
2023/01/17 06:49:16;;;;;;;11.38;1.48;;;4.50;99.90;;;;;;5081479;28;20028;-79
2023/01/17 06:51:42;;;;;;;10.07;1.45;;;4.50;99.90;;;;;;5078363;28;20100;-78
2023/01/17 06:54:08;;;;;;;15.32;2.08;;;4.50;99.90;;;;;;5076491;28;20028;-77
2023/01/17 06:56:35;;;;;;;13.73;1.73;;;4.50;99.90;;;;;;5059388;28;20028;-77
2023/01/17 06:59:00;;;;;;;15.50;1.75;;;4.50;99.90;;;;;;5084857;28;20025;-76
2023/01/17 07:01:26;;;;;;;11.40;1.30;;;4.50;99.90;;;;;;5085234;28;20032;-76
2023/01/17 07:03:51;;;;;;;5.90;1.45;;;4.50;99.90;;;;;;5082621;28;20016;-76
2023/01/17 07:06:17;;;;;;;17.85;1.80;;;4.50;99.90;;;;;;5084823;28;20033;-75
2023/01/17 07:08:43;;;;;;;9.88;1.40;;;4.60;99.90;;;;;;5084064;28;20110;-75
2023/01/17 07:11:08;;;;;;;15.40;1.83;;;4.50;99.90;;;;;;5080510;28;20025;-76
2023/01/17 07:13:35;;;;;;;16.10;1.73;;;4.50;99.90;;;;;;5082845;28;20107;-77
2023/01/17 07:16:02;;;;;;;11.85;1.52;;;4.50;99.90;;;;;;5073743;28;20100;-74
2023/01/17 07:18:28;;;;;;;23.50;1.80;;;4.60;99.90;;;;;;5072081;28;20105;-73
2023/01/17 07:20:53;;;;;;;20.83;2.08;;;4.60;99.90;;;;;;5072275;28;20115;-74
2023/01/17 07:23:21;;;;;;;12.57;1.65;;;4.50;99.90;;;;;;5072185;28;20513;-74
2023/01/17 07:25:55;;;;;;;13.13;1.75;;;4.60;99.90;;;;;;5071473;28;20138;-75
2023/01/17 07:28:21;;;;;;;12.50;1.47;;;4.60;99.90;;;;;;5071806;28;20043;-72
2023/01/17 07:30:47;;;;;;;15.52;2.22;;;4.60;99.90;;;;;;5071691;28;20267;-76
2023/01/17 07:33:12;;;;;;;13.25;1.70;;;4.60;99.90;;;;;;5071866;28;20028;-71
2023/01/17 07:35:38;;;;;;;13.73;1.70;;;4.70;99.90;;;;;;5070807;28;20444;-73
2023/01/17 07:38:04;;;;;;;8.13;1.52;;;4.70;99.90;;;;;;5069422;28;20488;-74
2023/01/17 07:40:30;;;;;;;22.67;2.75;;;4.70;99.90;;;;;;5071063;28;20540;-72
2023/01/17 07:43:00;;;;;;;17.30;2.22;;;4.70;99.90;;;;;;5071021;28;20033;-73
2023/01/17 07:45:26;;;;;;;36.85;4.20;;;4.80;99.90;;;;;;5070444;28;20120;-73
2023/01/17 07:47:52;;;;;;;18.75;2.00;;;4.70;99.90;;;;;;5071513;28;20075;-73
2023/01/17 07:50:18;;;;;;;26.67;3.53;;;4.80;99.90;;;;;;5075315;28;20544;-71
2023/01/17 07:52:48;;;;;;;17.48;3.00;;;4.90;99.90;;;;;;5074891;28;20032;-71
2023/01/17 07:55:14;;;;;;;10.95;2.40;;;4.90;99.90;;;;;;5074951;28;20028;-72
2023/01/17 07:57:39;;;;;;;18.27;1.90;;;4.80;99.90;;;;;;5074251;28;20024;-72
2023/01/17 08:00:06;;;;;;;16.77;1.90;;;4.90;99.90;;;;;;5075227;28;20037;-72
2023/01/17 08:02:31;;;;;;;12.07;1.33;;;4.80;99.90;;;;;;5075488;28;20102;-72
2023/01/17 08:04:57;;;;;;;21.45;2.20;;;4.90;99.90;;;;;;5075167;28;20040;-73
2023/01/17 08:07:22;;;;;;;21.25;2.95;;;4.80;99.90;;;;;;5056591;28;20028;-75
2023/01/17 08:09:49;;;;;;;25.00;3.03;;;4.80;99.90;;;;;;5075200;28;20070;-74
2023/01/17 08:12:15;;;;;;;17.63;2.60;;;4.70;99.90;;;;;;5074704;28;20031;-73
2023/01/17 08:14:40;;;;;;;17.45;2.30;;;4.60;99.90;;;;;;5074947;28;20112;-72
2023/01/17 08:17:06;;;;;;;21.10;3.65;;;4.50;99.90;;;;;;5074130;28;20046;-73
2023/01/17 08:19:32;;;;;;;12.90;2.42;;;4.50;99.90;;;;;;5074774;28;20067;-71
2023/01/17 08:21:57;;;;;;;14.48;2.40;;;4.40;99.90;;;;;;5074534;28;20020;-73
2023/01/17 08:24:23;;;;;;;22.33;1.70;;;4.40;99.90;;;;;;5074848;28;20432;-73
2023/01/17 08:26:49;;;;;;;14.40;1.80;;;4.40;99.90;;;;;;5073949;28;20103;-73
2023/01/17 08:29:14;;;;;;;19.27;3.50;;;4.40;99.90;;;;;;5074553;28;20029;-73
2023/01/17 08:31:40;;;;;;;19.98;1.98;;;4.50;99.90;;;;;;5074546;28;20055;-73
2023/01/17 08:34:05;;;;;;;10.25;1.83;;;4.40;99.90;;;;;;5074870;28;20028;-73
2023/01/17 08:36:31;;;;;;;13.93;1.88;;;4.40;99.90;;;;;;5073614;28;20397;-77
2023/01/17 08:38:57;;;;;;;13.15;1.58;;;4.50;99.90;;;;;;5075234;28;20024;-77
2023/01/17 08:41:23;;;;;;;11.32;1.98;;;4.50;99.90;;;;;;5076223;28;20056;-78
2023/01/17 08:43:50;;;;;;;11.23;1.70;;;4.60;99.90;;;;;;5075022;28;20024;-74
2023/01/17 08:46:16;;;;;;;10.52;1.58;;;4.60;99.90;;;;;;5072346;28;20082;-73
2023/01/17 08:48:42;;;;;;;14.77;1.92;;;4.60;99.90;;;;;;5074235;28;20029;-72
2023/01/17 08:51:08;;;;;;;15.43;1.80;;;4.60;99.90;;;;;;5074360;28;20029;-72
2023/01/17 08:53:33;;;;;;;17.23;2.10;;;4.60;99.90;;;;;;5077033;28;20051;-74
2023/01/17 08:56:00;;;;;;;16.02;1.65;;;4.60;99.90;;;;;;5075158;28;20397;-74
2023/01/17 08:58:27;;;;;;;11.05;1.90;;;4.60;99.90;;;;;;5074228;28;20044;-73
2023/01/17 09:00:53;;;;;;;12.93;1.95;;;4.70;99.90;;;;;;5072650;28;20111;-74
2023/01/17 09:03:19;;;;;;;14.70;1.95;;;4.70;99.90;;;;;;5073991;28;20021;-73
2023/01/17 09:05:44;;;;;;;9.25;1.55;;;4.70;99.90;;;;;;5073442;28;20567;-74
2023/01/17 09:08:10;;;;;;;15.65;2.75;;;4.80;99.90;;;;;;5074108;28;20021;-74
2023/01/17 09:10:35;;;;;;;23.30;3.22;;;4.90;99.90;;;;;;5074010;28;20029;-75
2023/01/17 09:13:01;;;;;;;17.23;2.38;;;5.10;99.90;;;;;;5073967;28;20051;-76
2023/01/17 09:15:27;;;;;;;14.10;2.53;;;5.40;99.90;;;;;;5073213;28;20553;-76
2023/01/17 09:17:56;;;;;;;16.67;2.50;;;5.60;99.90;;;;;;5073898;28;20025;-75
2023/01/17 09:20:22;;;;;;;14.57;2.10;;;6.10;99.90;;;;;;5073717;28;20020;-75
2023/01/17 09:22:48;;;;;;;12.85;1.73;;;6.90;98.00;;;;;;5073551;28;20024;-76
2023/01/17 09:25:14;;;;;;;12.90;2.00;;;7.70;86.30;;;;;;5073707;28;20031;-76
2023/01/17 09:27:43;;;;;;;12.13;3.35;;;8.00;48.90;;;;;;5074746;28;20031;-76
2023/01/17 09:30:09;;;;;;;12.02;2.10;;;7.90;51.70;;;;;;5077057;28;20029;-76
2023/01/17 09:32:35;;;;;;;13.73;2.00;;;7.60;62.20;;;;;;5075965;28;20063;-78
2023/01/17 09:35:02;;;;;;;15.13;2.20;;;7.30;69.90;;;;;;5074629;28;20032;-77
2023/01/17 09:37:27;;;;;;;19.38;1.83;;;7.00;81.70;;;;;;5073522;28;20021;-78
2023/01/17 09:39:53;;;;;;;9.82;1.50;;;6.60;82.60;;;;;;5055606;28;20020;-77
2023/01/17 09:42:35;;;;;;;11.05;1.65;;;6.20;89.60;;;;;;5073621;28;20024;-78
2023/01/17 09:45:01;;;;;;;6.10;1.25;;;5.90;94.40;;;;;;5073245;28;20105;-76
2023/01/17 09:47:29;;;;;;;8.88;2.17;;;5.70;94.70;;;;;;5072659;28;20505;-75
2023/01/17 09:50:06;;;;;;;19.30;2.15;;;5.60;95.30;;;;;;5073025;28;20064;-75
2023/01/17 09:52:32;;;;;;;12.35;1.83;;;5.40;95.80;;;;;;5073170;28;20038;-72
2023/01/17 09:54:58;;;;;;;9.80;1.98;;;5.30;98.40;;;;;;5072895;28;20107;-73
2023/01/17 09:57:51;;;;;;;8.70;1.38;;;5.30;99.40;;;;;;5072405;28;20037;-74
2023/01/17 10:00:47;;;;;;;14.65;1.92;;;5.30;98.50;;;;;;5073163;28;20020;-74
2023/01/17 10:03:24;;;;;;;11.50;1.75;;;5.10;99.70;;;;;;5073088;28;20051;-73
2023/01/17 10:06:23;;;;;;;12.18;2.38;;;5.10;99.20;;;;;;5070156;28;20069;-73
2023/01/17 10:09:02;;;;;;;11.73;2.10;;;5.00;99.90;;;;;;5069266;28;20367;-73
2023/01/17 10:12:12;;;;;;;12.65;2.03;;;5.00;99.30;;;;;;5072233;28;20020;-72
2023/01/17 10:14:43;;;;;;;12.02;1.98;;;5.00;99.90;;;;;;5072673;28;20028;-72
2023/01/17 10:17:36;;;;;;;12.57;1.88;;;5.10;99.80;;;;;;5071904;28;20016;-72
2023/01/17 10:20:53;;;;;;;18.63;2.83;;;5.10;99.90;;;;;;5072828;28;20017;-74
2023/01/17 10:23:49;;;;;;;11.77;1.70;;;5.10;98.80;;;;;;5067694;28;20107;-72
2023/01/17 10:26:19;;;;;;;12.88;1.75;;;5.10;98.10;;;;;;5071593;28;20510;-75
2023/01/17 10:28:49;;;;;;;20.67;2.42;;;5.10;97.10;;;;;;5073281;28;20093;-74
2023/01/17 10:31:29;;;;;;;14.23;1.75;;;5.10;98.10;;;;;;5073526;28;20033;-77
2023/01/17 10:34:28;;;;;;;20.00;1.92;;;5.20;96.10;;;;;;5073124;28;20028;-76
2023/01/17 10:37:10;;;;;;;13.43;1.98;;;5.20;96.50;;;;;;5071788;28;20029;-75
2023/01/17 10:39:38;;;;;;;13.20;1.85;;;5.10;96.30;;;;;;5072082;28;20052;-74
2023/01/17 10:42:18;;;;;;;14.63;1.67;;;5.30;93.20;;;;;;5070671;28;20670;-73
2023/01/17 10:44:54;;;;;;;10.68;1.65;;;5.40;92.30;;;;;;5072055;28;20059;-73
2023/01/17 10:47:22;;;;;;;13.98;1.67;;;5.40;91.40;;;;;;5071521;28;20035;-74
2023/01/17 10:49:51;;;;;;;14.57;1.70;;;5.50;90.20;;;;;;5071742;28;20024;-75
2023/01/17 10:52:46;;;;;;;15.35;1.38;;;5.50;83.50;;;;;;5071749;28;20497;-76
2023/01/17 10:55:49;;;;;;;19.37;1.90;;;5.40;87.90;;;;;;5074781;28;20039;-74
2023/01/17 10:58:14;;;;;;;10.30;1.38;;;5.50;81.00;;;;;;5010190;28;20523;-73
2023/01/17 11:00:46;;;;;;;12.13;1.50;;;5.40;79.00;;;;;;5059574;28;20086;-73
2023/01/17 11:03:14;;;;;;;11.10;1.40;;;5.50;80.50;;;;;;5071434;28;20033;-74
2023/01/17 11:05:41;;;;;;;9.13;2.13;;;5.50;72.10;;;;;;5071074;28;20032;-73
2023/01/17 11:08:12;;;;;;;15.55;1.92;;;5.60;69.50;;;;;;5071860;28;20074;-77
2023/01/17 11:10:44;;;;;;;7.30;1.30;;;5.50;67.00;;;;;;5071765;28;20021;-74
2023/01/17 11:13:34;;;;;;;12.75;1.75;;;5.70;58.70;;;;;;5072266;28;20021;-74
2023/01/17 11:16:04;;;;;;;7.15;1.27;;;5.90;62.90;;;;;;5072012;28;20035;-73
2023/01/17 11:18:36;;;;;;;12.82;2.15;;;6.00;56.40;;;;;;5071760;28;20021;-73
2023/01/17 11:21:23;;;;;;;7.70;1.60;;;6.20;57.80;;;;;;5071893;28;20066;-74
2023/01/17 11:23:55;;;;;;;5.38;1.30;;;6.50;59.30;;;;;;5070805;28;20027;-75
2023/01/17 11:26:28;;;;;;;5.18;1.00;;;6.60;59.50;;;;;;5071007;28;20029;-74
2023/01/17 11:29:14;;;;;;;10.68;1.50;;;6.70;51.10;;;;;;5071359;28;20060;-73
2023/01/17 11:31:40;;;;;;;6.90;1.42;;;6.70;53.20;;;;;;5071548;28;20030;-71
2023/01/17 11:34:13;;;;;;;13.73;1.45;;;6.70;46.50;;;;;;5072399;28;20477;-76
2023/01/17 11:36:39;;;;;;;4.15;1.05;;;6.60;28.90;;;;;;5070627;28;20035;-73
2023/01/17 11:39:18;;;;;;;6.43;1.25;;;6.60;22.70;;;;;;5071588;28;20028;-75
2023/01/17 11:41:50;;;;;;;9.00;1.33;;;6.50;24.30;;;;;;5071664;28;20021;-73
2023/01/17 11:44:34;;;;;;;14.80;1.60;;;6.50;24.00;;;;;;5071634;28;20025;-74
2023/01/17 11:47:11;;;;;;;12.82;1.50;;;6.50;13.60;;;;;;5070405;28;20089;-72
2023/01/17 11:49:39;;;;;;;12.15;1.60;;;6.50;4.70;;;;;;5071694;28;20046;-73
2023/01/17 11:52:20;;;;;;;16.25;1.73;;;6.50;23.10;;;;;;5071151;28;20028;-74
2023/01/17 11:54:47;;;;;;;11.55;1.83;;;6.60;20.30;;;;;;5071195;28;20028;-73
2023/01/17 11:57:23;;;;;;;14.95;1.88;;;6.80;16.60;;;;;;5070559;28;20029;-74
2023/01/17 11:59:53;;;;;;;11.93;1.40;;;6.90;1.00;;;;;;5071258;28;20059;-73
2023/01/17 12:02:35;;;;;;;9.85;1.52;;;6.90;1.00;;;;;;5071172;28;20081;-73
2023/01/17 12:05:33;;;;;;;13.73;1.55;;;6.80;1.00;;;;;;5071082;28;20033;-72
2023/01/17 12:08:17;;;;;;;10.20;1.30;;;;;;;;;;5071058;28;20436;-73
2023/01/17 12:11:06;;;;;;;13.75;1.85;;;6.50;1.00;;;;;;5070792;28;20093;-74
2023/01/17 12:13:59;;;;;;;7.40;1.25;;;6.30;1.00;;;;;;5071058;28;20020;-71
2023/01/17 12:16:49;;;;;;;11.73;1.40;;;6.20;1.00;;;;;;5070198;28;20116;-72
2023/01/17 12:19:47;;;;;;;13.73;2.50;;;6.20;1.00;;;;;;5070917;28;20501;-72
2023/01/17 12:22:22;;;;;;;8.32;1.80;;;6.80;21.00;;;;;;5070931;28;20024;-72
2023/01/17 12:25:05;;;;;;;9.00;1.40;;;8.30;1.00;;;;;;5071002;28;20043;-72
2023/01/17 12:27:53;;;;;;;9.98;1.38;;;9.20;99.90;;;;;;5070461;28;20410;-72
2023/01/17 12:30:51;;;;;;;10.07;1.75;;;9.60;1.00;;;;;;5070824;28;20031;-73
2023/01/17 12:33:47;;;;;;;9.25;1.63;;;9.30;1.00;;;;;;5036983;28;20047;-72
2023/01/17 12:36:18;;;;;;;4.65;1.20;;;9.40;99.90;;;;;;5073575;28;20039;-73
2023/01/17 12:38:47;;;;;;;7.22;1.52;;;9.50;99.90;;;;;;5056581;28;20030;-73
2023/01/17 12:41:19;;;;;;;5.70;1.50;;;9.60;1.00;;;;;;5075115;28;20024;-72
2023/01/17 12:43:45;;;;;;;4.78;1.38;;;10.10;99.90;;;;;;5074687;28;20028;-71
2023/01/17 12:46:37;;;;;;;6.95;1.52;;;11.40;94.00;;;;;;5071244;28;20871;-72
2023/01/17 12:49:19;;;;;;;7.85;1.17;;;11.80;99.90;;;;;;5074297;28;20039;-73
2023/01/17 12:51:48;;;;;;;5.47;1.05;;;11.70;26.70;;;;;;5074524;28;20025;-72
2023/01/17 12:54:18;;;;;;;5.38;1.00;;;11.30;99.90;;;;;;5074307;28;20035;-72
2023/01/17 12:56:55;;;;;;;3.97;1.00;;;10.80;99.90;;;;;;5073376;28;20032;-71
2023/01/17 12:59:46;;;;;;;6.10;1.13;;;10.30;1.00;;;;;;5073950;28;20512;-72
2023/01/17 13:02:30;;;;;;;5.75;1.10;;;10.60;91.20;;;;;;5073880;28;20029;-73
2023/01/17 13:05:22;;;;;;;7.70;1.73;;;10.50;99.90;;;;;;5074132;28;20162;-73
2023/01/17 13:07:47;;;;;;;4.88;1.20;;;10.20;1.00;;;;;;5067682;28;20033;-71
2023/01/17 13:10:31;;;;;;;4.47;1.27;;;9.40;99.90;;;;;;5073485;28;20048;-73
2023/01/17 13:13:10;;;;;;;6.93;0.80;;;9.10;1.00;;;;;;5074206;28;20023;-72
2023/01/17 13:15:39;;;;;;;4.93;0.90;;;8.60;95.50;;;;;;5072969;28;20035;-72
2023/01/17 13:18:21;;;;;;;4.10;1.10;;;8.60;99.90;;;;;;5073849;28;20548;-71
2023/01/17 13:21:07;;;;;;;10.45;1.50;;;8.80;99.90;;;;;;5073807;28;20024;-72
2023/01/17 13:24:06;;;;;;;8.40;1.27;;;8.70;99.90;;;;;;5074351;28;20470;-72
2023/01/17 13:26:50;;;;;;;4.88;1.35;;;8.50;99.90;;;;;;5073397;28;20037;-72
2023/01/17 13:29:32;;;;;;;6.30;1.30;;;9.10;99.90;;;;;;5073817;28;20112;-74
2023/01/17 13:32:12;;;;;;;7.55;1.23;;;;;;;;;;5073347;28;20031;-72
2023/01/17 13:34:46;;;;;;;6.22;1.17;;;10.90;1.00;;;;;;5073372;28;20052;-73
2023/01/17 13:37:34;;;;;;;7.35;1.30;;;11.70;99.90;;;;;;5073159;28;20023;-72
2023/01/17 13:40:20;;;;;;;3.67;1.00;;;12.30;99.90;;;;;;5072975;28;20012;-73
2023/01/17 13:42:58;;;;;;;7.43;1.52;;;12.30;3.90;;;;;;5073077;28;20016;-72
2023/01/17 13:45:35;;;;;;;10.90;1.20;;;12.50;1.00;;;;;;5072112;28;20504;-72
2023/01/17 13:48:15;;;;;;;6.60;1.10;;;12.60;99.90;;;;;;5073671;28;20025;-73
2023/01/17 13:50:44;;;;;;;5.60;1.67;;;12.40;1.00;;;;;;5074404;28;20170;-78
2023/01/17 13:53:34;;;;;;;4.68;1.30;;;12.20;2.50;;;;;;5053827;28;20027;-73
2023/01/17 13:56:17;;;;;;;5.18;1.27;;;11.50;1.00;;;;;;5067500;28;20078;-72
2023/01/17 13:58:49;;;;;;;9.88;1.63;;;11.10;99.90;;;;;;5065992;28;20025;-73
2023/01/17 14:01:21;;;;;;;5.25;1.20;;;10.70;99.90;;;;;;5067950;28;20020;-73
2023/01/17 14:03:49;;;;;;;11.85;1.90;;;9.90;1.00;;;;;;5072652;28;20107;-73
2023/01/17 14:06:32;;;;;;;12.57;2.20;;;9.30;99.90;;;;;;5072070;28;20054;-74
2023/01/17 14:09:43;;;;;;;10.55;1.88;;;8.70;1.00;;;;;;5072494;28;20032;-73
2023/01/17 14:12:09;;;;;;;10.15;2.42;;;8.30;93.90;;;;;;5069037;28;20479;-73
2023/01/17 14:14:40;;;;;;;10.82;1.58;;;8.00;99.90;;;;;;5072902;28;20111;-72
2023/01/17 14:17:15;;;;;;;12.45;2.05;;;7.80;99.90;;;;;;5071909;28;20484;-74
2023/01/17 14:19:46;;;;;;;13.15;2.35;;;7.40;1.00;;;;;;5066077;28;20485;-73
2023/01/17 14:22:18;;;;;;;11.80;1.58;;;7.10;1.00;;;;;;5072167;28;20016;-72
2023/01/17 14:25:10;;;;;;;6.38;1.27;;;6.90;1.00;;;;;;5072079;28;20390;-73
2023/01/17 14:27:46;;;;;;;9.07;1.67;;;6.60;1.00;;;;;;5064229;28;20025;-72
2023/01/17 14:30:33;;;;;;;7.82;1.55;;;6.70;1.00;;;;;;5072412;28;20039;-75
2023/01/17 14:33:04;;;;;;;12.68;1.73;;;6.80;1.00;;;;;;5072019;28;20086;-72
2023/01/17 14:35:40;;;;;;;6.18;1.20;;;6.80;1.00;;;;;;5071168;28;20035;-72
2023/01/17 14:38:21;;;;;;;10.65;1.98;;;6.80;1.00;;;;;;5070981;28;20052;-72
2023/01/17 14:41:17;;;;;;;12.27;1.50;;;6.70;1.00;;;;;;5065888;28;20024;-73